sensor_id;sensor_type;location;lat;lon;timestamp;temperature;humidity
15107;DHT22;7654;45.308;-75.096;2023-02-15T00:01:56;-0.30;99.90
15107;DHT22;7654;45.308;-75.096;2023-02-15T00:04:27;-0.50;99.90
15107;DHT22;7654;45.308;-75.096;2023-02-15T00:07:15;-0.60;99.90
15107;DHT22;7654;45.308;-75.096;2023-02-15T00:09:48;-0.80;99.90
15107;DHT22;7654;45.308;-75.096;2023-02-15T00:12:18;-0.90;99.90
15107;DHT22;7654;45.308;-75.096;2023-02-15T00:14:48;-1.00;99.90
15107;DHT22;7654;45.308;-75.096;2023-02-15T00:17:19;-1.10;99.90
15107;DHT22;7654;45.308;-75.096;2023-02-15T00:19:49;-1.10;99.90
15107;DHT22;7654;45.308;-75.096;2023-02-15T00:22:20;-1.20;99.90
15107;DHT22;7654;45.308;-75.096;2023-02-15T00:24:52;-1.30;99.90
15107;DHT22;7654;45.308;-75.096;2023-02-15T00:27:26;-1.30;99.90
15107;DHT22;7654;45.308;-75.096;2023-02-15T00:29:56;-1.30;99.90
15107;DHT22;7654;45.308;-75.096;2023-02-15T00:32:27;-1.30;99.90
15107;DHT22;7654;45.308;-75.096;2023-02-15T00:34:57;-1.40;99.90
15107;DHT22;7654;45.308;-75.096;2023-02-15T00:37:27;-1.50;99.90
15107;DHT22;7654;45.308;-75.096;2023-02-15T00:39:59;-1.60;99.90
15107;DHT22;7654;45.308;-75.096;2023-02-15T00:42:29;-1.80;99.90
15107;DHT22;7654;45.308;-75.096;2023-02-15T00:45:02;-1.80;99.90
15107;DHT22;7654;45.308;-75.096;2023-02-15T00:47:33;-2.00;99.90
15107;DHT22;7654;45.308;-75.096;2023-02-15T00:50:05;-2.10;99.90
15107;DHT22;7654;45.308;-75.096;2023-02-15T00:52:37;-2.10;99.90
15107;DHT22;7654;45.308;-75.096;2023-02-15T00:55:09;-2.10;99.90
15107;DHT22;7654;45.308;-75.096;2023-02-15T00:57:39;-2.00;99.90
15107;DHT22;7654;45.308;-75.096;2023-02-15T01:00:10;-2.10;99.90
15107;DHT22;7654;45.308;-75.096;2023-02-15T01:02:41;-2.10;99.90
15107;DHT22;7654;45.308;-75.096;2023-02-15T01:05:11;-2.20;99.90
15107;DHT22;7654;45.308;-75.096;2023-02-15T01:07:41;-2.20;99.90
15107;DHT22;7654;45.308;-75.096;2023-02-15T01:10:13;-2.20;99.90
15107;DHT22;7654;45.308;-75.096;2023-02-15T01:12:43;-2.20;99.90
15107;DHT22;7654;45.308;-75.096;2023-02-15T01:15:13;-2.10;99.90
15107;DHT22;7654;45.308;-75.096;2023-02-15T01:17:44;-2.10;99.90
15107;DHT22;7654;45.308;-75.096;2023-02-15T01:20:19;-2.10;99.90
15107;DHT22;7654;45.308;-75.096;2023-02-15T01:22:50;-2.10;99.90
15107;DHT22;7654;45.308;-75.096;2023-02-15T01:25:23;-2.30;99.90
15107;DHT22;7654;45.308;-75.096;2023-02-15T01:27:53;-2.20;99.90
15107;DHT22;7654;45.308;-75.096;2023-02-15T01:30:23;-2.20;99.90
15107;DHT22;7654;45.308;-75.096;2023-02-15T01:32:54;-2.20;99.90
15107;DHT22;7654;45.308;-75.096;2023-02-15T01:35:24;-2.20;99.90
15107;DHT22;7654;45.308;-75.096;2023-02-15T01:37:54;-2.20;99.90
15107;DHT22;7654;45.308;-75.096;2023-02-15T01:40:26;-2.30;99.90
15107;DHT22;7654;45.308;-75.096;2023-02-15T01:42:57;-2.40;99.90
15107;DHT22;7654;45.308;-75.096;2023-02-15T01:45:30;-2.60;99.90
15107;DHT22;7654;45.308;-75.096;2023-02-15T01:48:03;-2.70;99.90
15107;DHT22;7654;45.308;-75.096;2023-02-15T01:50:36;-2.70;99.90
15107;DHT22;7654;45.308;-75.096;2023-02-15T01:53:11;-2.80;99.90
15107;DHT22;7654;45.308;-75.096;2023-02-15T01:55:48;-2.90;99.90
15107;DHT22;7654;45.308;-75.096;2023-02-15T01:58:20;-2.90;99.90
15107;DHT22;7654;45.308;-75.096;2023-02-15T02:00:51;-3.00;99.90
15107;DHT22;7654;45.308;-75.096;2023-02-15T02:03:27;-3.10;99.90
15107;DHT22;7654;45.308;-75.096;2023-02-15T02:05:59;-3.10;99.90
15107;DHT22;7654;45.308;-75.096;2023-02-15T02:08:49;-3.10;99.90
15107;DHT22;7654;45.308;-75.096;2023-02-15T02:11:20;-3.10;99.90
15107;DHT22;7654;45.308;-75.096;2023-02-15T02:13:52;-3.10;99.90
15107;DHT22;7654;45.308;-75.096;2023-02-15T02:16:27;-3.00;99.90
15107;DHT22;7654;45.308;-75.096;2023-02-15T02:19:19;-3.00;99.90
15107;DHT22;7654;45.308;-75.096;2023-02-15T02:25:24;-2.90;99.90
15107;DHT22;7654;45.308;-75.096;2023-02-15T02:28:13;-3.10;99.90
15107;DHT22;7654;45.308;-75.096;2023-02-15T02:31:09;-3.10;99.90
15107;DHT22;7654;45.308;-75.096;2023-02-15T02:33:57;-3.20;99.90
15107;DHT22;7654;45.308;-75.096;2023-02-15T02:36:35;-3.20;99.90
15107;DHT22;7654;45.308;-75.096;2023-02-15T02:39:22;-3.20;99.90
15107;DHT22;7654;45.308;-75.096;2023-02-15T02:42:00;-3.10;99.90
15107;DHT22;7654;45.308;-75.096;2023-02-15T02:44:40;-3.00;99.90
15107;DHT22;7654;45.308;-75.096;2023-02-15T02:47:18;-3.10;99.90
15107;DHT22;7654;45.308;-75.096;2023-02-15T02:49:57;-3.10;99.90
15107;DHT22;7654;45.308;-75.096;2023-02-15T02:52:40;-3.20;99.90
15107;DHT22;7654;45.308;-75.096;2023-02-15T02:55:16;-3.10;99.90
15107;DHT22;7654;45.308;-75.096;2023-02-15T02:57:53;-3.10;99.90
15107;DHT22;7654;45.308;-75.096;2023-02-15T03:00:26;-3.00;99.90
15107;DHT22;7654;45.308;-75.096;2023-02-15T03:03:02;-3.10;99.90
15107;DHT22;7654;45.308;-75.096;2023-02-15T03:05:40;-3.00;99.90
15107;DHT22;7654;45.308;-75.096;2023-02-15T03:08:15;-3.10;99.90
15107;DHT22;7654;45.308;-75.096;2023-02-15T03:10:53;-3.10;99.90
15107;DHT22;7654;45.308;-75.096;2023-02-15T03:13:26;-3.10;99.90
15107;DHT22;7654;45.308;-75.096;2023-02-15T03:15:58;-3.10;99.90
15107;DHT22;7654;45.308;-75.096;2023-02-15T03:18:52;-3.20;99.90
15107;DHT22;7654;45.308;-75.096;2023-02-15T03:21:31;-3.30;99.90
15107;DHT22;7654;45.308;-75.096;2023-02-15T03:24:07;-3.10;99.90
15107;DHT22;7654;45.308;-75.096;2023-02-15T03:26:45;-3.10;99.90
15107;DHT22;7654;45.308;-75.096;2023-02-15T03:29:20;-3.00;99.90
15107;DHT22;7654;45.308;-75.096;2023-02-15T03:31:54;-3.00;99.90
15107;DHT22;7654;45.308;-75.096;2023-02-15T03:34:27;-3.10;99.90
15107;DHT22;7654;45.308;-75.096;2023-02-15T03:37:02;-3.00;99.90
15107;DHT22;7654;45.308;-75.096;2023-02-15T03:39:39;-3.00;99.90
15107;DHT22;7654;45.308;-75.096;2023-02-15T03:42:14;-3.00;99.90
15107;DHT22;7654;45.308;-75.096;2023-02-15T03:44:51;-3.10;99.90
15107;DHT22;7654;45.308;-75.096;2023-02-15T03:47:26;-3.20;99.90
15107;DHT22;7654;45.308;-75.096;2023-02-15T03:49:59;-3.20;99.90
15107;DHT22;7654;45.308;-75.096;2023-02-15T03:52:32;-3.20;99.90
15107;DHT22;7654;45.308;-75.096;2023-02-15T03:55:02;-3.30;99.90
15107;DHT22;7654;45.308;-75.096;2023-02-15T03:57:32;-3.40;99.90
15107;DHT22;7654;45.308;-75.096;2023-02-15T04:00:23;-3.50;99.90
15107;DHT22;7654;45.308;-75.096;2023-02-15T04:03:22;-3.40;99.90
15107;DHT22;7654;45.308;-75.096;2023-02-15T04:05:52;-3.60;99.90
15107;DHT22;7654;45.308;-75.096;2023-02-15T04:08:25;-3.60;99.90
15107;DHT22;7654;45.308;-75.096;2023-02-15T04:11:15;-3.70;99.90
15107;DHT22;7654;45.308;-75.096;2023-02-15T04:13:44;-3.80;99.90
15107;DHT22;7654;45.308;-75.096;2023-02-15T04:16:14;-3.80;99.90
15107;DHT22;7654;45.308;-75.096;2023-02-15T04:18:43;-3.90;99.90
15107;DHT22;7654;45.308;-75.096;2023-02-15T04:21:31;-3.90;99.90
15107;DHT22;7654;45.308;-75.096;2023-02-15T04:24:20;-3.90;99.90
15107;DHT22;7654;45.308;-75.096;2023-02-15T04:27:07;-3.90;99.90
15107;DHT22;7654;45.308;-75.096;2023-02-15T04:29:37;-4.00;99.90
15107;DHT22;7654;45.308;-75.096;2023-02-15T04:32:07;-3.90;99.90
15107;DHT22;7654;45.308;-75.096;2023-02-15T04:34:38;-3.80;99.90
15107;DHT22;7654;45.308;-75.096;2023-02-15T04:37:08;-3.80;99.90
15107;DHT22;7654;45.308;-75.096;2023-02-15T04:39:39;-3.70;99.90
15107;DHT22;7654;45.308;-75.096;2023-02-15T04:42:10;-3.70;99.90
15107;DHT22;7654;45.308;-75.096;2023-02-15T04:44:40;-3.60;99.90
15107;DHT22;7654;45.308;-75.096;2023-02-15T04:47:10;-3.60;99.90
15107;DHT22;7654;45.308;-75.096;2023-02-15T04:49:40;-3.50;99.90
15107;DHT22;7654;45.308;-75.096;2023-02-15T04:52:10;-3.50;99.90
15107;DHT22;7654;45.308;-75.096;2023-02-15T04:54:42;-3.50;99.90
15107;DHT22;7654;45.308;-75.096;2023-02-15T04:57:12;-3.50;99.90
15107;DHT22;7654;45.308;-75.096;2023-02-15T04:59:43;-3.60;99.90
15107;DHT22;7654;45.308;-75.096;2023-02-15T05:02:13;-3.60;99.90
15107;DHT22;7654;45.308;-75.096;2023-02-15T05:04:43;-3.60;99.90
15107;DHT22;7654;45.308;-75.096;2023-02-15T05:07:13;-3.70;99.90
15107;DHT22;7654;45.308;-75.096;2023-02-15T05:09:46;-3.60;99.90
15107;DHT22;7654;45.308;-75.096;2023-02-15T05:12:16;-3.60;99.90
15107;DHT22;7654;45.308;-75.096;2023-02-15T05:14:46;-3.70;99.90
15107;DHT22;7654;45.308;-75.096;2023-02-15T05:17:17;-3.60;99.90
15107;DHT22;7654;45.308;-75.096;2023-02-15T05:19:48;-3.60;99.90
15107;DHT22;7654;45.308;-75.096;2023-02-15T05:22:18;-3.50;99.90
15107;DHT22;7654;45.308;-75.096;2023-02-15T05:24:49;-3.50;99.90
15107;DHT22;7654;45.308;-75.096;2023-02-15T05:27:36;-3.40;99.90
15107;DHT22;7654;45.308;-75.096;2023-02-15T05:30:24;-3.40;99.90
15107;DHT22;7654;45.308;-75.096;2023-02-15T05:32:54;-3.30;99.90
15107;DHT22;7654;45.308;-75.096;2023-02-15T05:35:24;-3.20;99.90
15107;DHT22;7654;45.308;-75.096;2023-02-15T05:37:55;-3.20;99.90
15107;DHT22;7654;45.308;-75.096;2023-02-15T05:40:27;-3.10;99.90
15107;DHT22;7654;45.308;-75.096;2023-02-15T05:42:57;-3.10;99.90
15107;DHT22;7654;45.308;-75.096;2023-02-15T05:45:27;-3.10;99.90
15107;DHT22;7654;45.308;-75.096;2023-02-15T05:47:58;-3.10;99.90
15107;DHT22;7654;45.308;-75.096;2023-02-15T05:50:28;-3.20;99.90
15107;DHT22;7654;45.308;-75.096;2023-02-15T05:52:58;-3.30;99.90
15107;DHT22;7654;45.308;-75.096;2023-02-15T05:55:30;-3.30;99.90
15107;DHT22;7654;45.308;-75.096;2023-02-15T05:58:00;-3.40;99.90
15107;DHT22;7654;45.308;-75.096;2023-02-15T06:00:30;-3.30;99.90
15107;DHT22;7654;45.308;-75.096;2023-02-15T06:03:02;-3.40;99.90
15107;DHT22;7654;45.308;-75.096;2023-02-15T06:05:32;-3.30;99.90
15107;DHT22;7654;45.308;-75.096;2023-02-15T06:08:02;-3.30;99.90
15107;DHT22;7654;45.308;-75.096;2023-02-15T06:10:34;-3.30;99.90
15107;DHT22;7654;45.308;-75.096;2023-02-15T06:13:05;-3.30;99.90
15107;DHT22;7654;45.308;-75.096;2023-02-15T06:15:35;-3.20;99.90
15107;DHT22;7654;45.308;-75.096;2023-02-15T06:18:05;-3.20;99.90
15107;DHT22;7654;45.308;-75.096;2023-02-15T06:20:35;-3.10;99.90
15107;DHT22;7654;45.308;-75.096;2023-02-15T06:23:05;-3.00;99.90
15107;DHT22;7654;45.308;-75.096;2023-02-15T06:25:37;-3.00;99.90
15107;DHT22;7654;45.308;-75.096;2023-02-15T06:28:07;-3.00;99.90
15107;DHT22;7654;45.308;-75.096;2023-02-15T06:30:37;-3.00;99.90
15107;DHT22;7654;45.308;-75.096;2023-02-15T06:33:07;-2.90;99.90
15107;DHT22;7654;45.308;-75.096;2023-02-15T06:35:37;-2.80;99.90
15107;DHT22;7654;45.308;-75.096;2023-02-15T06:38:08;-2.80;99.90
15107;DHT22;7654;45.308;-75.096;2023-02-15T06:40:39;-2.80;99.90
15107;DHT22;7654;45.308;-75.096;2023-02-15T06:43:09;-2.80;99.90
15107;DHT22;7654;45.308;-75.096;2023-02-15T06:45:41;-2.80;99.90
15107;DHT22;7654;45.308;-75.096;2023-02-15T06:48:11;-2.70;99.90
15107;DHT22;7654;45.308;-75.096;2023-02-15T06:50:42;-2.70;99.90
15107;DHT22;7654;45.308;-75.096;2023-02-15T06:53:12;-2.60;99.90
15107;DHT22;7654;45.308;-75.096;2023-02-15T06:55:43;-2.60;99.90
15107;DHT22;7654;45.308;-75.096;2023-02-15T06:58:13;-2.50;99.90
15107;DHT22;7654;45.308;-75.096;2023-02-15T07:00:44;-2.50;99.90
15107;DHT22;7654;45.308;-75.096;2023-02-15T07:03:14;-2.50;99.90
15107;DHT22;7654;45.308;-75.096;2023-02-15T07:05:44;-2.50;99.90
15107;DHT22;7654;45.308;-75.096;2023-02-15T07:08:17;-2.50;99.90
15107;DHT22;7654;45.308;-75.096;2023-02-15T07:10:50;-2.50;99.90
15107;DHT22;7654;45.308;-75.096;2023-02-15T07:13:21;-2.50;99.90
15107;DHT22;7654;45.308;-75.096;2023-02-15T07:15:50;-2.50;99.90
15107;DHT22;7654;45.308;-75.096;2023-02-15T07:18:20;-2.50;99.90
15107;DHT22;7654;45.308;-75.096;2023-02-15T07:20:50;-2.40;99.90
15107;DHT22;7654;45.308;-75.096;2023-02-15T07:23:20;-2.40;99.90
15107;DHT22;7654;45.308;-75.096;2023-02-15T07:25:56;-2.40;99.90
15107;DHT22;7654;45.308;-75.096;2023-02-15T07:28:27;-2.30;99.90
15107;DHT22;7654;45.308;-75.096;2023-02-15T07:30:57;-2.30;99.90
15107;DHT22;7654;45.308;-75.096;2023-02-15T07:33:28;-2.20;99.90
15107;DHT22;7654;45.308;-75.096;2023-02-15T07:36:01;-2.20;99.90
15107;DHT22;7654;45.308;-75.096;2023-02-15T07:38:34;-2.20;99.90
15107;DHT22;7654;45.308;-75.096;2023-02-15T07:41:07;-2.10;99.90
15107;DHT22;7654;45.308;-75.096;2023-02-15T07:43:40;-2.10;99.90
15107;DHT22;7654;45.308;-75.096;2023-02-15T07:46:11;-2.10;99.90
15107;DHT22;7654;45.308;-75.096;2023-02-15T07:48:42;-2.00;99.90
15107;DHT22;7654;45.308;-75.096;2023-02-15T07:51:13;-2.00;99.90
15107;DHT22;7654;45.308;-75.096;2023-02-15T07:53:44;-2.00;99.90
15107;DHT22;7654;45.308;-75.096;2023-02-15T07:56:17;-2.00;99.90
15107;DHT22;7654;45.308;-75.096;2023-02-15T07:58:47;-1.90;99.90
15107;DHT22;7654;45.308;-75.096;2023-02-15T08:01:25;-1.90;99.90
15107;DHT22;7654;45.308;-75.096;2023-02-15T08:03:55;-1.90;99.90
15107;DHT22;7654;45.308;-75.096;2023-02-15T08:06:27;-2.00;99.90
15107;DHT22;7654;45.308;-75.096;2023-02-15T08:08:58;-2.00;99.90
15107;DHT22;7654;45.308;-75.096;2023-02-15T08:11:31;-2.00;99.90
15107;DHT22;7654;45.308;-75.096;2023-02-15T08:14:10;-2.00;99.90
15107;DHT22;7654;45.308;-75.096;2023-02-15T08:16:42;-2.00;99.90
15107;DHT22;7654;45.308;-75.096;2023-02-15T08:19:14;-1.90;99.90
15107;DHT22;7654;45.308;-75.096;2023-02-15T08:21:46;-1.90;99.90
15107;DHT22;7654;45.308;-75.096;2023-02-15T08:24:18;-1.90;99.90
15107;DHT22;7654;45.308;-75.096;2023-02-15T08:26:51;-1.90;99.90
15107;DHT22;7654;45.308;-75.096;2023-02-15T08:29:23;-1.90;99.90
15107;DHT22;7654;45.308;-75.096;2023-02-15T08:31:55;-1.90;99.90
15107;DHT22;7654;45.308;-75.096;2023-02-15T08:34:27;-2.00;99.90
15107;DHT22;7654;45.308;-75.096;2023-02-15T08:36:57;-2.00;99.90
15107;DHT22;7654;45.308;-75.096;2023-02-15T08:39:27;-2.10;99.90
15107;DHT22;7654;45.308;-75.096;2023-02-15T08:41:59;-2.10;99.90
15107;DHT22;7654;45.308;-75.096;2023-02-15T08:44:30;-2.10;99.90
15107;DHT22;7654;45.308;-75.096;2023-02-15T08:47:00;-2.10;99.90
15107;DHT22;7654;45.308;-75.096;2023-02-15T08:49:31;-2.10;99.90
15107;DHT22;7654;45.308;-75.096;2023-02-15T08:52:02;-2.00;99.90
15107;DHT22;7654;45.308;-75.096;2023-02-15T08:54:32;-2.00;99.90
15107;DHT22;7654;45.308;-75.096;2023-02-15T08:57:04;-1.90;99.90
15107;DHT22;7654;45.308;-75.096;2023-02-15T08:59:35;-1.80;99.90
15107;DHT22;7654;45.308;-75.096;2023-02-15T09:02:05;-1.80;99.90
15107;DHT22;7654;45.308;-75.096;2023-02-15T09:04:35;-1.70;99.90
15107;DHT22;7654;45.308;-75.096;2023-02-15T09:07:05;-1.70;99.90
15107;DHT22;7654;45.308;-75.096;2023-02-15T09:09:36;-1.60;99.90
15107;DHT22;7654;45.308;-75.096;2023-02-15T09:12:08;-1.60;99.90
15107;DHT22;7654;45.308;-75.096;2023-02-15T09:14:38;-1.60;99.90
15107;DHT22;7654;45.308;-75.096;2023-02-15T09:17:08;-1.50;99.90
15107;DHT22;7654;45.308;-75.096;2023-02-15T09:19:42;-1.50;99.90
15107;DHT22;7654;45.308;-75.096;2023-02-15T09:22:12;-1.40;99.90
15107;DHT22;7654;45.308;-75.096;2023-02-15T09:24:42;-1.40;99.90
15107;DHT22;7654;45.308;-75.096;2023-02-15T09:27:14;-1.30;99.90
15107;DHT22;7654;45.308;-75.096;2023-02-15T09:29:44;-1.30;99.90
15107;DHT22;7654;45.308;-75.096;2023-02-15T09:32:14;-1.30;99.90
15107;DHT22;7654;45.308;-75.096;2023-02-15T09:34:45;-1.30;99.90
15107;DHT22;7654;45.308;-75.096;2023-02-15T09:37:15;-1.30;99.90
15107;DHT22;7654;45.308;-75.096;2023-02-15T09:39:46;-1.30;99.90
15107;DHT22;7654;45.308;-75.096;2023-02-15T09:42:36;-1.30;99.90
15107;DHT22;7654;45.308;-75.096;2023-02-15T09:45:26;-1.30;99.90
15107;DHT22;7654;45.308;-75.096;2023-02-15T09:48:13;-1.30;99.90
15107;DHT22;7654;45.308;-75.096;2023-02-15T09:50:57;-1.20;99.90
15107;DHT22;7654;45.308;-75.096;2023-02-15T09:53:42;-1.20;99.90
15107;DHT22;7654;45.308;-75.096;2023-02-15T09:56:24;-1.20;99.90
15107;DHT22;7654;45.308;-75.096;2023-02-15T09:59:05;-1.20;99.90
15107;DHT22;7654;45.308;-75.096;2023-02-15T10:01:46;-1.20;99.90
15107;DHT22;7654;45.308;-75.096;2023-02-15T10:04:29;-1.10;99.90
15107;DHT22;7654;45.308;-75.096;2023-02-15T10:07:12;-1.10;99.90
15107;DHT22;7654;45.308;-75.096;2023-02-15T10:10:06;-1.10;99.90
15107;DHT22;7654;45.308;-75.096;2023-02-15T10:12:57;-1.00;99.90
15107;DHT22;7654;45.308;-75.096;2023-02-15T10:15:42;-1.00;99.90
15107;DHT22;7654;45.308;-75.096;2023-02-15T10:21:33;-0.80;99.90
15107;DHT22;7654;45.308;-75.096;2023-02-15T10:24:34;-0.80;99.90
15107;DHT22;7654;45.308;-75.096;2023-02-15T10:27:18;-0.70;99.90
15107;DHT22;7654;45.308;-75.096;2023-02-15T10:29:59;-0.70;99.90
15107;DHT22;7654;45.308;-75.096;2023-02-15T10:32:38;-0.60;99.90
15107;DHT22;7654;45.308;-75.096;2023-02-15T10:35:19;-0.60;99.90
15107;DHT22;7654;45.308;-75.096;2023-02-15T10:37:57;-0.60;99.90
15107;DHT22;7654;45.308;-75.096;2023-02-15T10:40:35;-0.50;99.90
15107;DHT22;7654;45.308;-75.096;2023-02-15T10:43:32;-0.50;99.90
15107;DHT22;7654;45.308;-75.096;2023-02-15T10:46:11;-0.40;99.90
15107;DHT22;7654;45.308;-75.096;2023-02-15T10:52:18;-0.30;99.90
15107;DHT22;7654;45.308;-75.096;2023-02-15T10:54:56;-0.30;99.90
15107;DHT22;7654;45.308;-75.096;2023-02-15T10:57:36;-0.30;99.90
15107;DHT22;7654;45.308;-75.096;2023-02-15T11:00:14;-0.20;99.90
15107;DHT22;7654;45.308;-75.096;2023-02-15T11:03:02;-0.20;99.90
15107;DHT22;7654;45.308;-75.096;2023-02-15T11:05:44;-0.20;99.90
15107;DHT22;7654;45.308;-75.096;2023-02-15T11:08:19;-0.20;99.90
15107;DHT22;7654;45.308;-75.096;2023-02-15T11:10:51;-0.20;99.90
15107;DHT22;7654;45.308;-75.096;2023-02-15T11:13:27;-0.10;99.90
15107;DHT22;7654;45.308;-75.096;2023-02-15T11:16:04;-0.10;99.90
15107;DHT22;7654;45.308;-75.096;2023-02-15T11:18:37;0.00;99.90
15107;DHT22;7654;45.308;-75.096;2023-02-15T11:21:11;0.00;99.90
15107;DHT22;7654;45.308;-75.096;2023-02-15T11:23:45;0.10;99.90
15107;DHT22;7654;45.308;-75.096;2023-02-15T11:26:20;0.20;99.90
15107;DHT22;7654;45.308;-75.096;2023-02-15T11:28:55;0.20;99.90
15107;DHT22;7654;45.308;-75.096;2023-02-15T11:31:29;0.30;99.90
15107;DHT22;7654;45.308;-75.096;2023-02-15T11:34:12;0.40;99.90
15107;DHT22;7654;45.308;-75.096;2023-02-15T11:36:44;0.40;99.90
15107;DHT22;7654;45.308;-75.096;2023-02-15T11:39:18;0.40;99.90
15107;DHT22;7654;45.308;-75.096;2023-02-15T11:41:52;0.50;99.90
15107;DHT22;7654;45.308;-75.096;2023-02-15T11:44:26;0.60;99.90
15107;DHT22;7654;45.308;-75.096;2023-02-15T11:46:57;0.70;99.90
15107;DHT22;7654;45.308;-75.096;2023-02-15T11:49:31;0.70;99.90
15107;DHT22;7654;45.308;-75.096;2023-02-15T11:52:02;0.70;99.90
15107;DHT22;7654;45.308;-75.096;2023-02-15T11:54:39;0.70;99.90
15107;DHT22;7654;45.308;-75.096;2023-02-15T11:57:14;0.70;99.90
15107;DHT22;7654;45.308;-75.096;2023-02-15T11:59:51;0.70;99.90
15107;DHT22;7654;45.308;-75.096;2023-02-15T12:02:23;0.70;99.90
15107;DHT22;7654;45.308;-75.096;2023-02-15T12:04:58;0.60;99.90
15107;DHT22;7654;45.308;-75.096;2023-02-15T12:07:32;0.60;99.90
15107;DHT22;7654;45.308;-75.096;2023-02-15T12:10:17;0.60;99.90
15107;DHT22;7654;45.308;-75.096;2023-02-15T12:13:08;0.60;99.90
15107;DHT22;7654;45.308;-75.096;2023-02-15T12:15:41;0.60;99.90
15107;DHT22;7654;45.308;-75.096;2023-02-15T12:18:21;0.60;99.90
15107;DHT22;7654;45.308;-75.096;2023-02-15T12:20:58;0.60;99.90
15107;DHT22;7654;45.308;-75.096;2023-02-15T12:23:32;0.60;99.90
15107;DHT22;7654;45.308;-75.096;2023-02-15T12:26:04;0.60;99.90
15107;DHT22;7654;45.308;-75.096;2023-02-15T12:28:36;0.60;99.90
15107;DHT22;7654;45.308;-75.096;2023-02-15T12:31:19;0.70;99.90
15107;DHT22;7654;45.308;-75.096;2023-02-15T12:33:52;0.80;99.90
15107;DHT22;7654;45.308;-75.096;2023-02-15T12:36:24;0.90;99.90
15107;DHT22;7654;45.308;-75.096;2023-02-15T12:39:21;0.90;99.90
15107;DHT22;7654;45.308;-75.096;2023-02-15T12:42:15;1.00;99.90
15107;DHT22;7654;45.308;-75.096;2023-02-15T12:44:59;1.00;99.90
15107;DHT22;7654;45.308;-75.096;2023-02-15T12:47:30;1.00;99.90
15107;DHT22;7654;45.308;-75.096;2023-02-15T12:50:11;1.00;99.90
15107;DHT22;7654;45.308;-75.096;2023-02-15T12:52:46;1.00;99.90
15107;DHT22;7654;45.308;-75.096;2023-02-15T12:55:23;1.00;99.90
15107;DHT22;7654;45.308;-75.096;2023-02-15T12:58:12;1.00;99.90
15107;DHT22;7654;45.308;-75.096;2023-02-15T13:00:46;1.10;99.90
15107;DHT22;7654;45.308;-75.096;2023-02-15T13:03:18;1.10;99.90
15107;DHT22;7654;45.308;-75.096;2023-02-15T13:05:50;1.10;99.90
15107;DHT22;7654;45.308;-75.096;2023-02-15T13:08:22;1.20;99.90
15107;DHT22;7654;45.308;-75.096;2023-02-15T13:10:58;1.20;99.90
15107;DHT22;7654;45.308;-75.096;2023-02-15T13:13:32;1.30;99.90
15107;DHT22;7654;45.308;-75.096;2023-02-15T13:16:05;1.30;99.90
15107;DHT22;7654;45.308;-75.096;2023-02-15T13:18:38;1.30;99.90
15107;DHT22;7654;45.308;-75.096;2023-02-15T13:21:13;1.30;99.90
15107;DHT22;7654;45.308;-75.096;2023-02-15T13:23:47;1.30;99.90
15107;DHT22;7654;45.308;-75.096;2023-02-15T13:26:20;1.40;99.90
15107;DHT22;7654;45.308;-75.096;2023-02-15T13:28:55;1.40;99.90
15107;DHT22;7654;45.308;-75.096;2023-02-15T13:31:28;1.50;99.90
15107;DHT22;7654;45.308;-75.096;2023-02-15T13:34:28;1.50;99.90
15107;DHT22;7654;45.308;-75.096;2023-02-15T13:37:05;1.60;99.90
15107;DHT22;7654;45.308;-75.096;2023-02-15T13:39:40;1.70;99.90
15107;DHT22;7654;45.308;-75.096;2023-02-15T13:42:19;1.70;99.90
15107;DHT22;7654;45.308;-75.096;2023-02-15T13:45:09;1.80;99.90
15107;DHT22;7654;45.308;-75.096;2023-02-15T13:47:47;1.90;99.90
15107;DHT22;7654;45.308;-75.096;2023-02-15T13:50:31;2.00;99.90
15107;DHT22;7654;45.308;-75.096;2023-02-15T13:53:21;2.20;99.90
15107;DHT22;7654;45.308;-75.096;2023-02-15T13:55:56;2.30;99.90
15107;DHT22;7654;45.308;-75.096;2023-02-15T13:58:54;2.40;99.90
15107;DHT22;7654;45.308;-75.096;2023-02-15T14:01:34;2.60;99.90
15107;DHT22;7654;45.308;-75.096;2023-02-15T14:04:24;2.80;99.90
15107;DHT22;7654;45.308;-75.096;2023-02-15T14:07:18;3.00;99.90
15107;DHT22;7654;45.308;-75.096;2023-02-15T14:10:02;3.20;99.90
15107;DHT22;7654;45.308;-75.096;2023-02-15T14:12:47;3.50;99.90
15107;DHT22;7654;45.308;-75.096;2023-02-15T14:15:32;3.70;99.90
15107;DHT22;7654;45.308;-75.096;2023-02-15T14:18:15;4.00;99.90
15107;DHT22;7654;45.308;-75.096;2023-02-15T14:20:58;4.10;99.90
15107;DHT22;7654;45.308;-75.096;2023-02-15T14:23:49;4.50;99.90
15107;DHT22;7654;45.308;-75.096;2023-02-15T14:26:31;4.80;99.90
15107;DHT22;7654;45.308;-75.096;2023-02-15T14:29:16;5.20;99.90
15107;DHT22;7654;45.308;-75.096;2023-02-15T14:31:53;5.50;99.90
15107;DHT22;7654;45.308;-75.096;2023-02-15T14:34:33;5.60;99.90
15107;DHT22;7654;45.308;-75.096;2023-02-15T14:37:06;5.70;99.90
15107;DHT22;7654;45.308;-75.096;2023-02-15T14:39:42;5.80;99.90
15107;DHT22;7654;45.308;-75.096;2023-02-15T14:42:36;5.70;99.90
15107;DHT22;7654;45.308;-75.096;2023-02-15T14:45:18;5.70;99.90
15107;DHT22;7654;45.308;-75.096;2023-02-15T14:47:57;5.50;99.90
15107;DHT22;7654;45.308;-75.096;2023-02-15T14:50:42;5.60;99.90
15107;DHT22;7654;45.308;-75.096;2023-02-15T14:53:33;5.60;99.90
15107;DHT22;7654;45.308;-75.096;2023-02-15T14:56:25;5.70;99.90
15107;DHT22;7654;45.308;-75.096;2023-02-15T14:59:14;5.70;99.90
15107;DHT22;7654;45.308;-75.096;2023-02-15T15:02:07;5.50;99.90
15107;DHT22;7654;45.308;-75.096;2023-02-15T15:04:42;5.60;99.90
15107;DHT22;7654;45.308;-75.096;2023-02-15T15:07:20;5.60;99.90
15107;DHT22;7654;45.308;-75.096;2023-02-15T15:09:59;5.60;99.90
15107;DHT22;7654;45.308;-75.096;2023-02-15T15:12:39;5.40;99.90
15107;DHT22;7654;45.308;-75.096;2023-02-15T15:15:12;5.20;99.90
15107;DHT22;7654;45.308;-75.096;2023-02-15T15:17:55;4.90;99.90
15107;DHT22;7654;45.308;-75.096;2023-02-15T15:20:44;4.70;99.90
15107;DHT22;7654;45.308;-75.096;2023-02-15T15:23:52;4.50;99.90
15107;DHT22;7654;45.308;-75.096;2023-02-15T15:26:29;4.30;99.90
15107;DHT22;7654;45.308;-75.096;2023-02-15T15:29:02;4.20;99.90
15107;DHT22;7654;45.308;-75.096;2023-02-15T15:31:39;4.10;99.90
15107;DHT22;7654;45.308;-75.096;2023-02-15T15:34:28;3.90;99.90
15107;DHT22;7654;45.308;-75.096;2023-02-15T15:40:48;3.60;99.90
15107;DHT22;7654;45.308;-75.096;2023-02-15T15:46:46;3.50;99.90
15107;DHT22;7654;45.308;-75.096;2023-02-15T15:49:21;3.40;99.90
15107;DHT22;7654;45.308;-75.096;2023-02-15T15:51:53;3.40;99.90
15107;DHT22;7654;45.308;-75.096;2023-02-15T15:54:25;3.50;99.90
15107;DHT22;7654;45.308;-75.096;2023-02-15T15:56:59;3.70;99.90
15107;DHT22;7654;45.308;-75.096;2023-02-15T15:59:32;3.80;99.90
15107;DHT22;7654;45.308;-75.096;2023-02-15T16:02:12;3.90;99.90
15107;DHT22;7654;45.308;-75.096;2023-02-15T16:04:51;3.90;99.90
15107;DHT22;7654;45.308;-75.096;2023-02-15T16:07:25;3.90;99.90
15107;DHT22;7654;45.308;-75.096;2023-02-15T16:09:58;4.10;99.90
15107;DHT22;7654;45.308;-75.096;2023-02-15T16:12:31;4.10;99.90
15107;DHT22;7654;45.308;-75.096;2023-02-15T16:15:11;4.10;99.90
15107;DHT22;7654;45.308;-75.096;2023-02-15T16:17:44;4.00;99.90
15107;DHT22;7654;45.308;-75.096;2023-02-15T16:20:18;3.90;99.90
15107;DHT22;7654;45.308;-75.096;2023-02-15T16:22:56;3.80;99.90
15107;DHT22;7654;45.308;-75.096;2023-02-15T16:25:38;3.80;99.90
15107;DHT22;7654;45.308;-75.096;2023-02-15T16:28:14;3.70;99.90
15107;DHT22;7654;45.308;-75.096;2023-02-15T16:30:54;3.70;99.90